createdAt,value
2017-09-29T00:00:40.517Z,77.38
2017-09-29T00:03:08.144Z,77.58
2017-09-29T00:05:35.721Z,77.84
2017-09-29T00:08:03.344Z,77.88
2017-09-29T00:10:30.936Z,78.04
2017-09-29T00:12:58.529Z,77.89
2017-09-29T00:15:26.157Z,77.83
2017-09-29T00:17:53.750Z,78.07
2017-09-29T00:20:21.681Z,78.13
2017-09-29T00:22:49.304Z,78.19
2017-09-29T00:25:16.929Z,78.26
2017-09-29T00:27:44.555Z,78.52
2017-09-29T00:30:12.157Z,78.46
2017-09-29T00:32:39.794Z,78.50
2017-09-29T00:35:07.439Z,78.54
2017-09-29T00:37:35.032Z,78.59
2017-09-29T00:40:02.658Z,78.53
2017-09-29T00:42:30.262Z,78.70
2017-09-29T00:44:57.900Z,78.61
2017-09-29T00:47:25.493Z,78.59
2017-09-29T00:49:53.078Z,78.58
2017-09-29T00:52:20.693Z,78.45
2017-09-29T00:54:48.301Z,78.32
2017-09-29T00:57:15.932Z,78.29
2017-09-29T00:59:43.516Z,78.41
2017-09-29T01:02:11.440Z,78.44
2017-09-29T01:04:39.063Z,78.26
2017-09-29T01:07:06.656Z,78.33
2017-09-29T01:09:34.293Z,78.46
2017-09-29T01:12:01.900Z,78.64
2017-09-29T01:14:29.502Z,78.39
2017-09-29T01:16:57.138Z,78.40
2017-09-29T01:19:24.724Z,78.40
2017-09-29T01:21:52.357Z,78.46
2017-09-29T01:24:19.949Z,78.42
2017-09-29T01:26:47.870Z,78.53
2017-09-29T01:29:15.480Z,78.36
2017-09-29T01:31:43.112Z,78.70
2017-09-29T01:34:10.747Z,78.40
2017-09-29T01:36:38.344Z,78.26
2017-09-29T01:39:05.928Z,78.35
2017-09-29T01:41:33.850Z,78.53
2017-09-29T01:44:01.448Z,78.30
2017-09-29T01:46:29.390Z,78.49
2017-09-29T01:48:56.978Z,78.21
2017-09-29T01:51:24.609Z,78.46
2017-09-29T01:53:52.216Z,78.50
2017-09-29T01:56:20.243Z,78.46
2017-09-29T01:58:47.878Z,78.49
2017-09-29T02:01:15.868Z,78.42
2017-09-29T02:03:43.457Z,78.50
2017-09-29T02:08:44.931Z,78.34
2017-09-29T02:11:12.585Z,78.11
2017-09-29T02:13:40.210Z,77.93
2017-09-29T02:16:07.825Z,78.12
2017-09-29T02:18:35.440Z,77.97
2017-09-29T02:21:03.027Z,78.42
2017-09-29T02:23:30.663Z,78.02
2017-09-29T02:25:58.260Z,77.93
2017-09-29T02:28:25.869Z,78.10
2017-09-29T02:30:53.485Z,78.08
2017-09-29T02:33:21.095Z,78.37
2017-09-29T02:35:48.725Z,77.91
2017-09-29T02:38:16.315Z,77.95
2017-09-29T02:40:43.896Z,77.87
2017-09-29T02:43:11.546Z,78.14
2017-09-29T02:45:39.126Z,78.16
2017-09-29T02:48:06.800Z,78.36
2017-09-29T02:50:34.423Z,78.38
2017-09-29T02:53:02.029Z,78.56
2017-09-29T02:55:29.650Z,78.73
2017-09-29T02:58:06.272Z,78.55
2017-09-29T03:00:38.012Z,78.54
2017-09-29T03:03:11.537Z,78.15
2017-09-29T03:05:43.372Z,78.08
2017-09-29T03:08:11.237Z,78.13
2017-09-29T03:10:38.830Z,78.03
2017-09-29T03:13:06.450Z,78.23
2017-09-29T03:15:34.330Z,78.33
2017-09-29T03:18:01.960Z,78.36
2017-09-29T03:20:29.547Z,78.11
2017-09-29T03:22:57.150Z,78.20
2017-09-29T03:25:25.194Z,78.22
2017-09-29T03:27:52.803Z,77.96
2017-09-29T03:30:20.437Z,78.24
2017-09-29T03:32:48.398Z,78.20
2017-09-29T03:35:15.993Z,77.96
2017-09-29T03:37:43.604Z,77.71
2017-09-29T03:40:11.208Z,77.45
2017-09-29T03:42:38.844Z,77.53
2017-09-29T03:45:06.443Z,77.76
2017-09-29T03:47:34.050Z,77.98
2017-09-29T03:50:05.252Z,77.92
2017-09-29T03:52:38.322Z,78.12
2017-09-29T03:55:07.900Z,77.61
2017-09-29T03:57:43.679Z,77.65
2017-09-29T04:00:11.313Z,77.33
2017-09-29T04:02:38.934Z,77.80
2017-09-29T04:05:06.562Z,78.13
2017-09-29T04:07:34.228Z,77.98
2017-09-29T04:10:01.817Z,78.16
2017-09-29T04:12:29.435Z,78.26
2017-09-29T04:14:57.036Z,78.19
2017-09-29T04:17:25.169Z,78.19
2017-09-29T04:19:52.756Z,78.18
2017-09-29T04:22:20.344Z,78.01
2017-09-29T04:24:47.972Z,77.87
2017-09-29T04:27:15.616Z,77.60
2017-09-29T04:29:43.253Z,77.48
2017-09-29T04:32:10.881Z,77.71
2017-09-29T04:34:38.492Z,77.77
2017-09-29T04:37:06.117Z,77.82
2017-09-29T04:39:33.767Z,77.93
2017-09-29T04:42:01.388Z,78.15
2017-09-29T04:44:28.986Z,78.40
2017-09-29T04:46:56.572Z,78.32
2017-09-29T04:49:24.477Z,78.11
2017-09-29T04:51:52.071Z,77.41
2017-09-29T04:54:19.689Z,77.31
2017-09-29T04:56:47.440Z,77.27
2017-09-29T04:59:15.099Z,77.47
2017-09-29T05:01:42.724Z,77.72
2017-09-29T05:04:10.555Z,77.67
2017-09-29T05:06:38.526Z,78.05
2017-09-29T05:09:06.116Z,78.10
2017-09-29T05:11:33.719Z,78.45
2017-09-29T05:14:01.568Z,78.19
2017-09-29T05:16:29.480Z,78.44
2017-09-29T05:18:57.103Z,78.11
2017-09-29T05:21:24.692Z,78.07
2017-09-29T05:23:52.572Z,77.97
2017-09-29T05:26:20.208Z,77.67
2017-09-29T05:28:47.843Z,77.80
2017-09-29T05:31:15.478Z,77.77
2017-09-29T05:33:43.080Z,77.76
2017-09-29T05:36:10.676Z,77.54
2017-09-29T05:38:38.297Z,77.36
2017-09-29T05:41:05.946Z,77.52
2017-09-29T05:43:33.578Z,77.50
2017-09-29T05:46:01.182Z,77.62
2017-09-29T05:48:28.772Z,77.19
2017-09-29T05:50:56.400Z,77.22
2017-09-29T05:53:24.002Z,77.43
2017-09-29T05:55:51.656Z,77.44
2017-09-29T05:58:19.308Z,77.03
2017-09-29T06:00:46.948Z,77.11
2017-09-29T06:03:14.592Z,77.05
2017-09-29T06:05:42.192Z,77.30
2017-09-29T06:08:09.826Z,77.29
2017-09-29T06:10:37.422Z,77.37
2017-09-29T06:13:05.060Z,76.86
2017-09-29T06:15:32.686Z,77.29
2017-09-29T06:18:00.275Z,77.46
2017-09-29T06:20:27.906Z,77.12
2017-09-29T06:22:55.491Z,77.44
2017-09-29T06:25:23.078Z,77.30
2017-09-29T06:27:51.002Z,77.55
2017-09-29T06:30:18.881Z,77.53
2017-09-29T06:32:46.536Z,77.42
2017-09-29T06:35:14.153Z,77.67
2017-09-29T06:37:41.859Z,77.28
2017-09-29T06:40:09.472Z,77.15
2017-09-29T06:42:37.099Z,77.17
2017-09-29T06:45:04.735Z,76.54
2017-09-29T06:47:32.314Z,76.69
2017-09-29T06:49:59.963Z,76.69
2017-09-29T06:52:27.580Z,76.62
2017-09-29T06:54:55.184Z,76.19
2017-09-29T06:57:22.841Z,75.83
2017-09-29T06:59:50.428Z,74.93
2017-09-29T07:02:18.284Z,74.80
2017-09-29T07:04:45.892Z,73.30
2017-09-29T07:07:13.516Z,72.86
2017-09-29T07:09:41.477Z,71.96
2017-09-29T07:12:09.092Z,71.30
2017-09-29T07:14:36.688Z,71.56
2017-09-29T07:17:04.370Z,71.35
2017-09-29T07:19:32.108Z,71.65
2017-09-29T07:21:59.777Z,71.39
2017-09-29T07:24:34.902Z,71.40
2017-09-29T07:27:06.023Z,71.68
2017-09-29T07:29:35.185Z,71.74
2017-09-29T07:32:04.465Z,71.86
2017-09-29T07:34:32.074Z,71.69
2017-09-29T07:36:59.671Z,71.58
2017-09-29T07:39:27.294Z,71.17
2017-09-29T07:41:54.882Z,71.15
2017-09-29T07:44:22.610Z,70.65
2017-09-29T07:46:50.497Z,70.85
2017-09-29T07:49:18.096Z,69.82
2017-09-29T07:51:45.745Z,69.52
2017-09-29T07:54:13.337Z,69.20
2017-09-29T07:56:41.921Z,68.54
2017-09-29T07:59:09.536Z,68.27
2017-09-29T08:01:38.589Z,67.49
2017-09-29T08:04:06.567Z,67.53
2017-09-29T08:06:34.162Z,66.80
2017-09-29T08:09:01.822Z,66.78
2017-09-29T08:11:29.487Z,66.46
2017-09-29T08:13:57.129Z,66.34
2017-09-29T08:16:24.768Z,66.24
2017-09-29T08:18:52.361Z,66.70
2017-09-29T08:21:19.976Z,66.13
2017-09-29T08:23:47.625Z,66.44
2017-09-29T08:26:15.212Z,67.12
2017-09-29T08:28:42.867Z,67.21
2017-09-29T08:31:10.681Z,66.28
2017-09-29T08:33:38.298Z,65.89
2017-09-29T08:36:05.933Z,65.30
2017-09-29T08:38:33.537Z,64.76
2017-09-29T08:41:01.198Z,64.96
2017-09-29T08:43:28.825Z,63.79
2017-09-29T08:45:56.595Z,63.21
2017-09-29T08:48:24.224Z,62.39
2017-09-29T08:50:51.844Z,61.83
2017-09-29T08:53:19.486Z,60.58
2017-09-29T08:55:47.074Z,60.17
2017-09-29T08:58:14.673Z,59.79
2017-09-29T09:00:42.293Z,59.47
2017-09-29T09:03:09.892Z,57.81
2017-09-29T09:05:37.537Z,56.61
2017-09-29T09:08:05.145Z,56.41
2017-09-29T09:10:32.734Z,56.38
2017-09-29T09:13:00.375Z,54.71
2017-09-29T09:15:27.971Z,53.72
2017-09-29T09:17:55.615Z,53.50
2017-09-29T09:20:23.205Z,53.01
2017-09-29T09:22:50.806Z,51.59
2017-09-29T09:25:18.443Z,52.95
2017-09-29T09:27:46.051Z,54.21
2017-09-29T09:30:13.700Z,55.35
2017-09-29T09:32:41.343Z,56.52
2017-09-29T09:35:08.959Z,56.63
2017-09-29T09:37:39.077Z,57.74
2017-09-29T09:40:06.682Z,56.88
2017-09-29T09:42:34.611Z,57.13
2017-09-29T09:45:02.250Z,57.00
2017-09-29T09:47:29.863Z,56.76
2017-09-29T09:49:57.509Z,57.25
2017-09-29T09:52:25.471Z,57.45
2017-09-29T09:54:53.085Z,57.95
2017-09-29T09:57:20.741Z,57.63
2017-09-29T09:59:48.354Z,57.44
2017-09-29T10:02:15.964Z,57.67
2017-09-29T10:04:43.625Z,58.18
2017-09-29T10:07:11.209Z,58.59
2017-09-29T10:09:38.804Z,57.99
2017-09-29T10:12:06.416Z,57.69
2017-09-29T10:14:34.028Z,57.51
2017-09-29T10:17:01.705Z,57.97
2017-09-29T10:19:29.289Z,56.33
2017-09-29T10:21:56.892Z,54.96
2017-09-29T10:24:24.776Z,55.13
2017-09-29T10:26:52.367Z,55.34
2017-09-29T10:29:19.990Z,54.33
2017-09-29T10:31:47.613Z,54.71
2017-09-29T10:34:15.637Z,56.04
2017-09-29T10:36:43.256Z,56.65
2017-09-29T10:39:10.859Z,56.55
2017-09-29T10:41:38.493Z,55.73
2017-09-29T10:44:06.390Z,56.29
2017-09-29T10:46:33.984Z,55.58
2017-09-29T10:49:01.602Z,56.15
2017-09-29T10:51:29.195Z,56.01
2017-09-29T10:53:56.847Z,56.52
2017-09-29T10:56:24.436Z,56.30
2017-09-29T10:58:52.373Z,56.65
2017-09-29T11:01:19.997Z,57.62
2017-09-29T11:03:47.600Z,57.30
2017-09-29T11:06:15.229Z,57.10
2017-09-29T11:08:42.829Z,57.71
2017-09-29T11:11:10.680Z,57.23
2017-09-29T11:13:38.300Z,57.31
2017-09-29T11:16:05.884Z,57.84
2017-09-29T11:18:33.520Z,57.46
2017-09-29T11:21:01.105Z,56.92
2017-09-29T11:23:28.998Z,56.91
2017-09-29T11:25:56.677Z,56.19
2017-09-29T11:28:24.284Z,56.68
2017-09-29T11:30:51.900Z,56.30
2017-09-29T11:33:19.961Z,55.45
2017-09-29T11:35:47.544Z,55.78
2017-09-29T11:38:15.165Z,55.66
2017-09-29T11:40:42.750Z,55.31
2017-09-29T11:43:10.387Z,54.18
2017-09-29T11:45:37.968Z,53.09
2017-09-29T11:48:05.588Z,52.58
2017-09-29T11:50:33.200Z,51.37
2017-09-29T11:53:00.821Z,51.35
2017-09-29T11:55:28.444Z,50.58
2017-09-29T11:57:56.386Z,49.21
2017-09-29T12:00:23.977Z,49.07
2017-09-29T12:02:51.592Z,48.58
2017-09-29T12:05:19.171Z,46.59
2017-09-29T12:07:47.138Z,41.80
2017-09-29T12:10:14.749Z,35.56
2017-09-29T12:12:42.344Z,31.28
2017-09-29T12:15:10.335Z,28.69
2017-09-29T12:17:37.922Z,25.49
2017-09-29T12:20:05.577Z,26.33
2017-09-29T12:22:33.160Z,27.37
2017-09-29T12:25:00.748Z,28.85
2017-09-29T12:27:28.363Z,30.96
2017-09-29T12:29:55.974Z,33.16
2017-09-29T12:32:23.622Z,36.50
2017-09-29T12:34:51.232Z,39.14
2017-09-29T12:37:18.817Z,41.65
2017-09-29T12:39:46.625Z,44.02
2017-09-29T12:42:14.221Z,45.79
2017-09-29T12:44:42.288Z,46.91
2017-09-29T12:47:09.878Z,47.17
2017-09-29T12:49:37.467Z,47.83
2017-09-29T12:52:05.382Z,49.30
2017-09-29T12:54:32.972Z,49.90
2017-09-29T12:57:00.595Z,50.86
2017-09-29T12:59:28.208Z,51.55
2017-09-29T13:01:55.812Z,52.00
2017-09-29T13:04:23.700Z,51.58
2017-09-29T13:06:51.301Z,51.65
2017-09-29T13:09:18.938Z,50.88
2017-09-29T13:11:46.532Z,51.13
2017-09-29T13:14:14.145Z,51.57
2017-09-29T13:16:41.757Z,50.96
2017-09-29T13:19:09.342Z,50.92
2017-09-29T13:21:36.972Z,51.41
2017-09-29T13:24:04.900Z,51.36
2017-09-29T13:26:32.492Z,50.47
2017-09-29T13:29:00.110Z,50.77
2017-09-29T13:31:27.739Z,50.66
2017-09-29T13:33:55.840Z,50.41
2017-09-29T13:36:23.423Z,51.08
2017-09-29T13:38:51.028Z,51.62
2017-09-29T13:41:18.660Z,51.68
2017-09-29T13:43:46.263Z,52.20
2017-09-29T13:46:13.919Z,51.21
2017-09-29T13:48:41.839Z,51.83
2017-09-29T13:51:09.428Z,51.94
2017-09-29T13:53:37.369Z,52.26
2017-09-29T13:56:04.960Z,51.00
2017-09-29T13:58:32.577Z,51.19
2017-09-29T14:01:00.166Z,51.53
2017-09-29T14:03:27.743Z,51.70
2017-09-29T14:05:55.358Z,51.11
2017-09-29T14:08:22.945Z,51.80
2017-09-29T14:10:50.579Z,51.80
2017-09-29T14:13:18.201Z,51.90
2017-09-29T14:15:46.145Z,51.58
2017-09-29T14:18:14.097Z,51.17
2017-09-29T14:20:41.966Z,50.50
2017-09-29T14:23:09.610Z,50.73
2017-09-29T14:25:37.198Z,50.23
2017-09-29T14:28:04.784Z,50.24
2017-09-29T14:30:32.396Z,49.86
2017-09-29T14:33:00.003Z,50.35
2017-09-29T14:35:27.624Z,50.67
2017-09-29T14:37:55.507Z,50.98
2017-09-29T14:40:23.106Z,50.94
2017-09-29T14:42:50.785Z,50.32
2017-09-29T14:45:18.389Z,49.46
2017-09-29T14:47:46.028Z,49.84
2017-09-29T14:50:13.920Z,50.00
2017-09-29T14:52:41.516Z,50.38
2017-09-29T14:55:09.150Z,51.27
2017-09-29T14:57:36.740Z,51.77
2017-09-29T15:00:04.360Z,52.39
2017-09-29T15:02:31.953Z,52.35
2017-09-29T15:04:59.551Z,52.09
2017-09-29T15:07:27.176Z,52.36
2017-09-29T15:09:54.756Z,52.93
2017-09-29T15:12:22.688Z,52.92
2017-09-29T15:14:50.279Z,53.31
2017-09-29T15:17:17.880Z,53.36
2017-09-29T15:19:45.520Z,53.75
2017-09-29T15:22:13.137Z,53.85
2017-09-29T15:24:40.772Z,54.11
2017-09-29T15:27:08.360Z,54.25
2017-09-29T15:29:35.964Z,54.07
2017-09-29T15:32:03.605Z,54.17
2017-09-29T15:34:31.219Z,54.60
2017-09-29T15:36:59.112Z,54.54
2017-09-29T15:39:26.731Z,54.70
2017-09-29T15:41:54.326Z,55.17
2017-09-29T15:44:22.206Z,55.77
2017-09-29T15:46:49.789Z,55.73
2017-09-29T15:49:17.407Z,56.08
2017-09-29T15:51:44.988Z,56.41
2017-09-29T15:54:12.579Z,56.44
2017-09-29T15:56:40.215Z,56.51
2017-09-29T15:59:08.082Z,56.82
2017-09-29T16:01:35.933Z,56.95
2017-09-29T16:04:03.512Z,56.81
2017-09-29T16:06:31.110Z,57.25
2017-09-29T16:08:58.789Z,57.60
2017-09-29T16:11:26.399Z,58.20
2017-09-29T16:13:54.079Z,58.59
2017-09-29T16:16:21.660Z,58.97
2017-09-29T16:18:49.248Z,59.23
2017-09-29T16:21:16.856Z,59.38
2017-09-29T16:23:44.441Z,59.75
2017-09-29T16:26:12.090Z,59.67
2017-09-29T16:28:39.681Z,60.02
2017-09-29T16:31:07.269Z,59.95
2017-09-29T16:33:34.908Z,59.78
2017-09-29T16:36:02.485Z,60.10
2017-09-29T16:38:30.120Z,60.47
2017-09-29T16:40:57.737Z,60.73
2017-09-29T16:43:25.610Z,60.59
2017-09-29T16:45:53.237Z,60.82
2017-09-29T16:48:20.831Z,60.65
2017-09-29T16:50:48.717Z,60.67
2017-09-29T16:53:16.356Z,60.89
2017-09-29T16:55:44.184Z,61.15
2017-09-29T16:58:11.809Z,60.91
2017-09-29T17:00:39.405Z,60.81
2017-09-29T17:03:07.025Z,61.50
2017-09-29T17:05:34.652Z,61.25
2017-09-29T17:08:02.244Z,61.52
2017-09-29T17:10:29.973Z,61.58
2017-09-29T17:12:57.577Z,61.84
2017-09-29T17:15:25.356Z,61.73
2017-09-29T17:17:53.057Z,61.81
2017-09-29T17:20:20.645Z,61.77
2017-09-29T17:22:49.606Z,61.90
2017-09-29T17:25:17.210Z,61.98
2017-09-29T17:27:44.800Z,62.14
2017-09-29T17:30:12.407Z,61.97
2017-09-29T17:32:39.994Z,62.22
2017-09-29T17:35:07.700Z,62.43
2017-09-29T17:37:35.298Z,62.74
2017-09-29T17:40:03.198Z,62.68
2017-09-29T17:42:30.821Z,62.73
2017-09-29T17:44:58.420Z,62.84
2017-09-29T17:47:26.096Z,62.84
2017-09-29T17:49:53.691Z,63.08
2017-09-29T17:52:21.320Z,63.22
2017-09-29T17:54:48.936Z,63.30
2017-09-29T17:57:16.828Z,63.29
2017-09-29T17:59:44.801Z,63.57
2017-09-29T18:02:12.399Z,63.63
2017-09-29T18:04:39.977Z,63.94
2017-09-29T18:07:07.599Z,63.76
2017-09-29T18:09:35.200Z,64.14
2017-09-29T18:12:03.005Z,64.09
2017-09-29T18:14:30.764Z,63.89
2017-09-29T18:16:58.348Z,63.81
2017-09-29T18:19:25.977Z,63.60
2017-09-29T18:21:54.084Z,63.52
2017-09-29T18:24:21.735Z,63.49
2017-09-29T18:26:49.326Z,63.13
2017-09-29T18:29:17.139Z,63.41
2017-09-29T18:31:44.756Z,62.58
2017-09-29T18:34:12.384Z,62.73
2017-09-29T18:36:40.015Z,62.78
2017-09-29T18:39:07.650Z,62.62
2017-09-29T18:41:37.675Z,62.60
2017-09-29T18:44:05.765Z,62.22
2017-09-29T18:46:51.011Z,62.34
2017-09-29T18:49:18.649Z,62.26
2017-09-29T18:51:46.274Z,62.55
2017-09-29T18:54:13.900Z,62.65
2017-09-29T18:56:41.559Z,62.60
2017-09-29T18:59:09.163Z,62.28
2017-09-29T19:01:36.797Z,62.50
2017-09-29T19:04:04.733Z,62.22
2017-09-29T19:06:32.392Z,62.04
2017-09-29T19:09:00.287Z,62.25
2017-09-29T19:11:27.883Z,61.95
2017-09-29T19:13:55.508Z,61.80
2017-09-29T19:16:23.144Z,61.61
2017-09-29T19:18:50.782Z,61.34
2017-09-29T19:21:18.676Z,61.24
2017-09-29T19:23:46.316Z,61.80
2017-09-29T19:26:14.009Z,61.05
2017-09-29T19:28:41.624Z,61.23
2017-09-29T19:31:09.636Z,61.15
2017-09-29T19:33:37.226Z,61.38
2017-09-29T19:36:04.912Z,61.52
2017-09-29T19:38:32.508Z,61.27
2017-09-29T19:41:00.145Z,60.96
2017-09-29T19:43:27.781Z,61.14
2017-09-29T19:45:55.419Z,61.41
2017-09-29T19:48:23.056Z,60.97
2017-09-29T19:50:50.665Z,61.21
2017-09-29T19:53:18.508Z,60.95
2017-09-29T19:55:46.194Z,60.62
2017-09-29T19:58:13.821Z,61.11
2017-09-29T20:00:41.466Z,60.46
2017-09-29T20:03:09.081Z,61.11
2017-09-29T20:05:37.022Z,60.84
2017-09-29T20:08:04.644Z,60.58
2017-09-29T20:10:32.550Z,60.64
2017-09-29T20:13:00.177Z,61.08
2017-09-29T20:15:27.819Z,60.35
2017-09-29T20:17:55.423Z,60.36
2017-09-29T20:20:23.045Z,60.53
2017-09-29T20:22:50.876Z,60.39
2017-09-29T20:25:18.526Z,60.61
2017-09-29T20:27:46.125Z,60.92
2017-09-29T20:30:13.745Z,60.67
2017-09-29T20:32:41.393Z,60.36
2017-09-29T20:35:09.003Z,60.45
2017-09-29T20:37:36.663Z,60.39
2017-09-29T20:40:04.251Z,60.18
2017-09-29T20:42:31.868Z,60.61
2017-09-29T20:44:59.488Z,60.11
2017-09-29T20:47:27.088Z,60.87
2017-09-29T20:49:54.731Z,60.65
2017-09-29T20:52:22.331Z,60.79
2017-09-29T20:54:49.936Z,60.69
2017-09-29T20:57:17.595Z,60.87
2017-09-29T20:59:45.209Z,60.39
2017-09-29T21:02:12.916Z,60.75
2017-09-29T21:04:40.523Z,61.11
2017-09-29T21:07:08.120Z,60.75
2017-09-29T21:09:35.765Z,60.72
2017-09-29T21:12:03.376Z,60.65
2017-09-29T21:14:31.019Z,60.69
2017-09-29T21:16:58.627Z,60.61
2017-09-29T21:19:26.233Z,60.67
2017-09-29T21:21:53.883Z,60.77
2017-09-29T21:24:21.488Z,61.03
2017-09-29T21:26:49.135Z,60.76
2017-09-29T21:29:16.729Z,61.10
2017-09-29T21:31:44.321Z,60.97
2017-09-29T21:34:11.984Z,61.11
2017-09-29T21:36:39.837Z,60.78
2017-09-29T21:39:07.487Z,60.63
2017-09-29T21:41:35.104Z,61.04
2017-09-29T21:44:02.695Z,61.36
2017-09-29T21:46:30.341Z,60.78
2017-09-29T21:48:57.939Z,60.72
2017-09-29T21:51:25.577Z,61.07
2017-09-29T21:53:53.170Z,61.15
2017-09-29T21:56:20.762Z,61.28
2017-09-29T21:58:48.384Z,61.51
2017-09-29T22:01:15.965Z,61.12
2017-09-29T22:03:43.923Z,61.47
2017-09-29T22:06:11.516Z,61.31
2017-09-29T22:08:39.181Z,61.27
2017-09-29T22:11:07.119Z,61.16
2017-09-29T22:13:34.713Z,61.23
2017-09-29T22:16:02.360Z,61.56
2017-09-29T22:18:30.204Z,61.50
2017-09-29T22:20:57.793Z,61.75
2017-09-29T22:23:25.412Z,61.39
2017-09-29T22:25:53.004Z,61.38
2017-09-29T22:28:20.967Z,62.04
2017-09-29T22:30:48.554Z,61.67
2017-09-29T22:33:16.152Z,61.46
2017-09-29T22:35:43.800Z,61.36
2017-09-29T22:38:11.389Z,61.58
2017-09-29T22:40:39.023Z,62.25
2017-09-29T22:43:06.616Z,62.36
2017-09-29T22:45:34.503Z,62.10
2017-09-29T22:48:05.748Z,62.48
2017-09-29T22:50:33.560Z,62.48
2017-09-29T22:53:01.274Z,62.38
2017-09-29T22:55:29.020Z,62.38
2017-09-29T22:57:56.608Z,62.65
2017-09-29T23:00:24.243Z,62.98
2017-09-29T23:02:51.835Z,62.89
2017-09-29T23:05:19.465Z,62.85
2017-09-29T23:07:47.060Z,63.16
2017-09-29T23:10:14.671Z,62.69
2017-09-29T23:12:43.155Z,63.11
2017-09-29T23:15:10.752Z,63.43
2017-09-29T23:17:38.392Z,63.29
2017-09-29T23:20:05.977Z,63.00
2017-09-29T23:22:33.574Z,63.52
2017-09-29T23:25:01.184Z,63.71
2017-09-29T23:27:28.775Z,64.05
2017-09-29T23:29:56.589Z,63.94
2017-09-29T23:32:24.171Z,63.69
2017-09-29T23:34:51.761Z,63.91
2017-09-29T23:37:19.378Z,64.01
2017-09-29T23:39:46.960Z,64.24
2017-09-29T23:42:14.851Z,63.86
2017-09-29T23:44:42.468Z,63.95
2017-09-29T23:47:10.077Z,64.00
2017-09-29T23:49:37.696Z,64.51
2017-09-29T23:52:05.285Z,64.59
2017-09-29T23:54:32.884Z,64.29
2017-09-29T23:57:00.510Z,64.44
2017-09-29T23:59:28.094Z,64.70
